Vigo Park, Texas
Current Conditions -  °F | °C
As of 2:15 PM on Friday 19 Dec 2014 (Local Time) from KPVW Reporting Station
Overcast Overcast  
Wind Chill: 36°   Ceiling: 800
Heat Index: 40°   Visibility: 10mi
Dew Point: 37°   Wind: 6mph
Humidity: 90%   Direction: 270°W
Pressure: 30.11"   Gusts: NA
Location:  34.5509°N, 101.748°W
Report Text: KPVW 192015Z AUTO 27005KT 10SM OVC008 04/03 A3011 RMK AO2 T00440029
Loading
Personal Weather Stations






























Interactive Weather Map New forecast layout! Learn more

10-Day Weather Forecast

Advertisements
Track Severe Weather on mobile